createdAt,value
2023-05-09T00:01:28.412Z,5.93
2023-05-09T00:03:54.939Z,5.63
2023-05-09T00:06:21.469Z,6.00
2023-05-09T00:08:47.857Z,6.72
2023-05-09T00:11:14.305Z,6.63
2023-05-09T00:13:40.877Z,7.07
2023-05-09T00:16:07.873Z,5.93
2023-05-09T00:18:35.843Z,6.10
2023-05-09T00:21:02.412Z,6.03
2023-05-09T00:23:28.823Z,6.10
2023-05-09T00:25:55.264Z,6.15
2023-05-09T00:28:21.766Z,6.10
2023-05-09T00:30:48.181Z,6.10
2023-05-09T00:33:14.617Z,6.63
2023-05-09T00:35:42.370Z,6.25
2023-05-09T00:38:08.849Z,5.78
2023-05-09T00:40:35.427Z,6.43
2023-05-09T00:43:01.994Z,6.65
2023-05-09T00:45:28.530Z,6.15
2023-05-09T00:47:55.582Z,5.97
2023-05-09T00:50:22.160Z,6.03
2023-05-09T00:52:50.674Z,6.53
2023-05-09T00:55:17.357Z,6.38
2023-05-09T00:57:44.251Z,6.40
2023-05-09T01:00:12.043Z,5.22
2023-05-09T01:02:39.152Z,6.00
2023-05-09T01:05:06.147Z,7.03
2023-05-09T01:07:40.794Z,5.70
2023-05-09T01:10:15.995Z,6.07
2023-05-09T01:12:49.544Z,5.97
2023-05-09T01:15:22.070Z,6.55
2023-05-09T01:17:55.106Z,6.07
2023-05-09T01:20:29.989Z,6.32
2023-05-09T01:23:19.814Z,6.03
2023-05-09T01:25:57.568Z,5.95
2023-05-09T01:28:36.511Z,6.20
2023-05-09T01:31:05.944Z,5.85
2023-05-09T01:33:36.259Z,5.70
2023-05-09T01:36:06.582Z,6.65
2023-05-09T01:38:34.444Z,5.88
2023-05-09T01:41:02.776Z,5.53
2023-05-09T01:43:30.205Z,5.22
2023-05-09T01:45:59.564Z,4.97
2023-05-09T01:48:30.185Z,5.65
2023-05-09T01:50:58.155Z,5.78
2023-05-09T01:53:27.938Z,6.13
2023-05-09T01:55:56.532Z,5.78
2023-05-09T01:58:25.290Z,5.80
2023-05-09T02:00:52.305Z,5.40
2023-05-09T02:03:20.832Z,5.45
2023-05-09T02:05:50.250Z,5.85
2023-05-09T02:08:18.796Z,5.80
2023-05-09T02:10:47.288Z,5.45
2023-05-09T02:13:13.962Z,5.72
2023-05-09T02:15:40.691Z,6.45
2023-05-09T02:18:07.275Z,5.70
2023-05-09T02:20:33.878Z,5.50
2023-05-09T02:23:01.951Z,5.78
2023-05-09T02:25:28.738Z,5.82
2023-05-09T02:27:57.570Z,5.32
2023-05-09T02:30:26.540Z,5.57
2023-05-09T02:32:59.470Z,5.78
2023-05-09T02:35:27.794Z,5.78
2023-05-09T02:37:55.291Z,5.45
2023-05-09T02:40:24.793Z,5.25
2023-05-09T02:42:51.187Z,5.28
2023-05-09T02:45:17.618Z,5.13
2023-05-09T02:47:44.116Z,4.97
2023-05-09T02:50:11.577Z,5.43
2023-05-09T02:52:38.912Z,5.45
2023-05-09T02:55:06.525Z,5.38
2023-05-09T02:57:37.354Z,6.45
2023-05-09T03:00:05.169Z,5.40
2023-05-09T03:02:31.767Z,5.35
2023-05-09T03:04:58.600Z,5.22
2023-05-09T03:07:25.273Z,5.53
2023-05-09T03:09:51.642Z,5.00
2023-05-09T03:12:18.097Z,4.93
2023-05-09T03:14:45.866Z,4.38
2023-05-09T03:17:12.371Z,5.97
2023-05-09T03:19:38.828Z,5.28
2023-05-09T03:22:05.385Z,5.72
2023-05-09T03:24:35.504Z,5.30
2023-05-09T03:27:02.296Z,5.00
2023-05-09T03:29:28.641Z,4.97
2023-05-09T03:31:56.384Z,5.00
2023-05-09T03:34:22.801Z,4.75
2023-05-09T03:36:49.210Z,4.97
2023-05-09T03:39:15.669Z,5.18
2023-05-09T03:41:45.192Z,5.13
2023-05-09T03:44:12.370Z,5.75
2023-05-09T03:46:38.982Z,5.20
2023-05-09T03:49:06.924Z,5.05
2023-05-09T03:51:34.531Z,5.68
2023-05-09T03:54:02.946Z,5.03
2023-05-09T03:56:29.416Z,5.93
2023-05-09T03:58:55.864Z,4.97
2023-05-09T04:01:22.522Z,5.75
2023-05-09T04:03:49.089Z,5.07
2023-05-09T04:06:17.788Z,6.10
2023-05-09T04:08:44.355Z,5.47
2023-05-09T04:11:10.750Z,6.03
2023-05-09T04:13:39.592Z,5.13
2023-05-09T04:16:17.071Z,5.68
2023-05-09T04:18:43.564Z,5.60
2023-05-09T04:21:09.985Z,5.70
2023-05-09T04:23:38.809Z,5.25
2023-05-09T04:26:05.528Z,4.80
2023-05-09T04:28:31.963Z,5.38
2023-05-09T04:30:58.564Z,5.10
2023-05-09T04:33:25.178Z,6.20
2023-05-09T04:35:52.448Z,5.05
2023-05-09T04:38:18.971Z,4.80
2023-05-09T04:40:46.897Z,5.97
2023-05-09T04:43:13.354Z,5.63
2023-05-09T04:45:40.120Z,5.25
2023-05-09T04:48:06.657Z,6.00
2023-05-09T04:50:33.269Z,5.53
2023-05-09T04:52:59.754Z,4.88
2023-05-09T04:55:26.372Z,5.82
2023-05-09T04:57:56.200Z,5.13
2023-05-09T05:00:22.826Z,5.55
2023-05-09T05:02:49.476Z,6.22
2023-05-09T05:05:15.947Z,5.57
2023-05-09T05:07:43.425Z,5.25
2023-05-09T05:10:12.630Z,5.55
2023-05-09T05:12:43.005Z,6.03
2023-05-09T05:15:13.495Z,6.20
2023-05-09T05:17:42.625Z,5.50
2023-05-09T05:20:09.892Z,5.47
2023-05-09T05:22:40.639Z,5.82
2023-05-09T05:25:08.278Z,6.00
2023-05-09T05:27:35.936Z,5.70
2023-05-09T05:30:02.750Z,5.07
2023-05-09T05:32:30.615Z,5.55
2023-05-09T05:34:57.396Z,4.78
2023-05-09T05:37:24.105Z,5.72
2023-05-09T05:39:50.592Z,4.57
2023-05-09T05:42:17.376Z,5.43
2023-05-09T05:44:44.141Z,4.45
2023-05-09T05:47:11.974Z,5.13
2023-05-09T05:49:40.186Z,4.80
2023-05-09T05:52:06.660Z,5.15
2023-05-09T05:54:34.114Z,5.78
2023-05-09T05:57:00.612Z,5.13
2023-05-09T05:59:27.051Z,5.85
2023-05-09T06:01:53.650Z,5.40
2023-05-09T06:04:20.898Z,4.72
2023-05-09T06:06:48.829Z,4.55
2023-05-09T06:09:15.319Z,4.85
2023-05-09T06:11:41.783Z,4.82
2023-05-09T06:14:08.240Z,4.78
2023-05-09T06:16:34.943Z,4.53
2023-05-09T06:19:01.334Z,4.70
2023-05-09T06:21:27.750Z,4.60
2023-05-09T06:24:05.130Z,4.55
2023-05-09T06:26:34.781Z,5.18
2023-05-09T06:29:01.233Z,4.70
2023-05-09T06:31:27.738Z,4.53
2023-05-09T06:33:54.190Z,3.85
2023-05-09T06:36:20.591Z,4.15
2023-05-09T06:38:49.794Z,3.83
2023-05-09T06:41:17.510Z,4.13
2023-05-09T06:43:43.889Z,3.90
2023-05-09T06:46:10.385Z,4.20
2023-05-09T06:48:36.813Z,4.13
2023-05-09T06:51:03.375Z,3.92
2023-05-09T06:53:29.890Z,3.95
2023-05-09T06:55:56.333Z,3.58
2023-05-09T06:58:24.099Z,3.80
2023-05-09T07:00:50.513Z,4.25
2023-05-09T07:03:16.992Z,4.25
2023-05-09T07:05:43.396Z,4.00
2023-05-09T07:08:09.913Z,3.47
2023-05-09T07:10:36.402Z,4.30
2023-05-09T07:13:02.848Z,3.88
2023-05-09T07:15:40.438Z,3.78
2023-05-09T07:18:08.874Z,3.75
2023-05-09T07:20:35.425Z,3.42
2023-05-09T07:23:03.080Z,3.75
2023-05-09T07:25:29.569Z,3.00
2023-05-09T07:27:56.133Z,4.20
2023-05-09T07:30:22.669Z,3.85
2023-05-09T07:32:50.626Z,3.50
2023-05-09T07:35:17.359Z,3.17
2023-05-09T07:37:43.789Z,3.42
2023-05-09T07:40:10.944Z,3.63
2023-05-09T07:42:37.335Z,3.78
2023-05-09T07:45:04.425Z,3.47
2023-05-09T07:47:30.912Z,3.60
2023-05-09T07:49:58.873Z,4.00
2023-05-09T07:52:25.559Z,3.75
2023-05-09T07:54:51.965Z,4.18
2023-05-09T07:57:18.419Z,3.88
2023-05-09T07:59:44.826Z,4.07
2023-05-09T08:02:12.486Z,3.83
2023-05-09T08:04:39.063Z,3.95
2023-05-09T08:07:06.897Z,3.42
2023-05-09T08:09:33.306Z,3.85
2023-05-09T08:11:59.698Z,3.53
2023-05-09T08:14:26.288Z,3.58
2023-05-09T08:16:52.684Z,4.15
2023-05-09T08:19:19.093Z,3.75
2023-05-09T08:21:45.580Z,3.67
2023-05-09T08:24:13.304Z,3.55
2023-05-09T08:26:39.750Z,4.13
2023-05-09T08:29:06.104Z,2.95
2023-05-09T08:31:32.642Z,3.33
2023-05-09T08:33:59.084Z,3.97
2023-05-09T08:36:25.600Z,4.15
2023-05-09T08:38:52.114Z,3.33
2023-05-09T08:41:25.042Z,3.28
2023-05-09T08:43:52.217Z,3.10
2023-05-09T08:46:27.814Z,3.83
2023-05-09T08:48:54.961Z,3.55
2023-05-09T08:51:21.989Z,3.25
2023-05-09T08:53:48.773Z,3.50
2023-05-09T08:56:15.423Z,3.40
2023-05-09T08:58:43.624Z,3.67
2023-05-09T09:01:12.835Z,3.17
2023-05-09T09:03:39.394Z,3.17
2023-05-09T09:06:08.181Z,2.90
2023-05-09T09:08:35.513Z,3.05
2023-05-09T09:11:02.618Z,2.63
2023-05-09T09:13:30.489Z,3.08
2023-05-09T09:15:59.828Z,3.97
2023-05-09T09:18:31.275Z,3.20
2023-05-09T09:21:02.255Z,3.22
2023-05-09T09:23:30.137Z,3.67
2023-05-09T09:26:01.076Z,3.50
2023-05-09T09:28:27.874Z,3.63
2023-05-09T09:30:54.297Z,3.50
2023-05-09T09:33:23.304Z,3.38
2023-05-09T09:35:53.003Z,3.58
2023-05-09T09:38:20.111Z,3.13
2023-05-09T09:40:53.459Z,3.60
2023-05-09T09:43:19.866Z,3.10
2023-05-09T09:45:49.062Z,3.28
2023-05-09T09:48:15.466Z,3.40
2023-05-09T09:50:43.209Z,3.28
2023-05-09T09:53:09.646Z,2.47
2023-05-09T09:55:36.148Z,2.95
2023-05-09T09:58:02.542Z,4.68
2023-05-09T10:00:29.059Z,3.15
2023-05-09T10:02:57.381Z,4.30
2023-05-09T10:05:25.223Z,3.63
2023-05-09T10:07:56.175Z,2.90
2023-05-09T10:10:22.940Z,2.70
2023-05-09T10:12:51.150Z,3.00
2023-05-09T10:15:17.801Z,2.65
2023-05-09T10:17:44.259Z,3.22
2023-05-09T10:20:13.486Z,2.95
2023-05-09T10:22:40.743Z,3.53
2023-05-09T10:25:15.092Z,3.00
2023-05-09T10:27:45.654Z,3.40
2023-05-09T10:30:17.012Z,2.90
2023-05-09T10:32:48.464Z,2.92
2023-05-09T10:35:17.805Z,2.53
2023-05-09T10:37:45.390Z,3.15
2023-05-09T10:40:13.461Z,2.50
2023-05-09T10:42:39.964Z,2.88
2023-05-09T10:45:08.486Z,2.72
2023-05-09T10:47:35.697Z,3.17
2023-05-09T10:50:02.589Z,2.28
2023-05-09T10:52:31.779Z,2.50
2023-05-09T10:54:58.801Z,2.72
2023-05-09T10:57:28.556Z,2.90
2023-05-09T10:59:55.273Z,2.63
2023-05-09T11:02:22.143Z,2.50
2023-05-09T11:04:48.542Z,3.15
2023-05-09T11:07:25.618Z,2.25
2023-05-09T11:09:52.565Z,3.10
2023-05-09T11:12:20.141Z,2.38
2023-05-09T11:14:49.325Z,2.78
2023-05-09T11:17:29.556Z,2.92
2023-05-09T11:20:05.088Z,3.30
2023-05-09T11:22:38.814Z,2.65
2023-05-09T11:25:07.688Z,3.28
2023-05-09T11:27:40.004Z,2.85
2023-05-09T11:30:09.623Z,2.42
2023-05-09T11:35:10.484Z,2.92
2023-05-09T11:37:44.727Z,2.70
2023-05-09T11:40:12.529Z,2.50
2023-05-09T11:42:42.444Z,2.28
2023-05-09T11:45:11.576Z,3.03
2023-05-09T11:47:38.574Z,2.63
2023-05-09T11:50:06.689Z,2.83
2023-05-09T11:52:33.470Z,2.53
2023-05-09T11:55:00.267Z,2.75
2023-05-09T11:57:26.884Z,2.85
2023-05-09T11:59:53.476Z,2.47
2023-05-09T12:02:21.549Z,2.97
2023-05-09T12:04:48.199Z,2.40
2023-05-09T12:07:14.954Z,2.38
2023-05-09T12:09:41.402Z,2.47
2023-05-09T12:12:12.118Z,3.42
2023-05-09T12:14:39.486Z,2.70
2023-05-09T12:17:06.647Z,2.47
2023-05-09T12:19:34.577Z,2.40
2023-05-09T12:22:03.495Z,1.90
2023-05-09T12:24:30.694Z,2.60
2023-05-09T12:26:59.585Z,3.03
2023-05-09T12:29:27.008Z,2.50
2023-05-09T12:31:54.265Z,2.63
2023-05-09T12:34:21.320Z,2.85
2023-05-09T12:36:49.156Z,2.42
2023-05-09T12:39:15.927Z,2.88
2023-05-09T12:42:01.002Z,2.33
2023-05-09T12:44:29.025Z,2.22
2023-05-09T12:46:57.358Z,2.78
2023-05-09T12:49:25.053Z,2.08
2023-05-09T12:51:54.483Z,2.20
2023-05-09T12:54:21.380Z,2.28
2023-05-09T12:56:47.992Z,2.67
2023-05-09T12:59:20.815Z,2.63
2023-05-09T13:01:52.012Z,2.42
2023-05-09T13:04:20.322Z,2.17
2023-05-09T13:06:51.309Z,2.58
2023-05-09T13:09:19.456Z,1.98
2023-05-09T13:11:46.417Z,2.20
2023-05-09T13:14:13.226Z,1.75
2023-05-09T13:16:39.983Z,1.73
2023-05-09T13:19:06.709Z,2.30
2023-05-09T13:21:33.558Z,1.80
2023-05-09T13:24:00.672Z,2.10
2023-05-09T13:26:28.538Z,2.30
2023-05-09T13:28:55.348Z,1.75
2023-05-09T13:31:22.034Z,2.35
2023-05-09T13:33:50.906Z,1.85
2023-05-09T13:36:21.400Z,1.70
2023-05-09T13:38:47.902Z,2.25
2023-05-09T13:41:14.464Z,1.95
2023-05-09T13:43:44.353Z,1.85
2023-05-09T13:46:10.810Z,1.98
2023-05-09T13:48:37.260Z,1.85
2023-05-09T13:51:03.861Z,1.92
2023-05-09T13:53:32.665Z,1.70
2023-05-09T13:55:59.381Z,1.90
2023-05-09T13:58:25.820Z,1.92
2023-05-09T14:00:53.722Z,2.20
2023-05-09T14:03:20.444Z,1.38
2023-05-09T14:05:46.913Z,1.90
2023-05-09T14:08:13.426Z,1.90
2023-05-09T14:10:39.927Z,1.88
2023-05-09T14:13:06.423Z,2.35
2023-05-09T14:15:32.989Z,2.05
2023-05-09T14:18:00.862Z,1.63
2023-05-09T14:20:27.442Z,1.77
2023-05-09T14:22:53.831Z,1.85
2023-05-09T14:25:20.251Z,1.52
2023-05-09T14:27:46.698Z,1.52
2023-05-09T14:30:13.903Z,2.05
2023-05-09T14:32:40.523Z,1.30
2023-05-09T14:35:11.168Z,1.85
2023-05-09T14:37:37.605Z,2.17
2023-05-09T14:40:04.649Z,1.67
2023-05-09T14:42:31.200Z,2.17
2023-05-09T14:44:58.018Z,2.13
2023-05-09T14:47:24.498Z,1.85
2023-05-09T14:49:50.921Z,1.90
2023-05-09T14:52:18.669Z,1.80
2023-05-09T14:54:45.114Z,1.92
2023-05-09T14:57:11.572Z,1.75
2023-05-09T14:59:37.971Z,1.63
2023-05-09T15:02:04.421Z,1.65
2023-05-09T15:04:31.428Z,1.88
2023-05-09T15:06:58.144Z,1.90
2023-05-09T15:09:25.928Z,1.70
2023-05-09T15:11:52.670Z,1.80
2023-05-09T15:14:19.093Z,2.28
2023-05-09T15:16:45.747Z,1.95
2023-05-09T15:19:12.328Z,1.60
2023-05-09T15:21:38.842Z,1.83
2023-05-09T15:24:06.006Z,1.52
2023-05-09T15:26:33.731Z,1.80
2023-05-09T15:29:00.151Z,1.77
2023-05-09T15:31:29.191Z,1.83
2023-05-09T15:33:55.580Z,1.67
2023-05-09T15:36:22.049Z,2.03
2023-05-09T15:38:48.490Z,1.42
2023-05-09T15:41:15.101Z,1.40
2023-05-09T15:43:42.963Z,1.67
2023-05-09T15:46:09.410Z,1.92
2023-05-09T15:48:35.955Z,1.85
2023-05-09T15:51:02.412Z,2.30
2023-05-09T15:53:29.110Z,2.08
2023-05-09T15:55:55.689Z,2.10
2023-05-09T15:58:22.369Z,1.92
2023-05-09T16:00:50.189Z,2.10
2023-05-09T16:03:36.852Z,2.42
2023-05-09T16:06:20.251Z,1.92
2023-05-09T16:08:46.633Z,2.58
2023-05-09T16:11:13.179Z,1.85
2023-05-09T16:13:39.646Z,1.52
2023-05-09T16:16:07.767Z,2.35
2023-05-09T16:18:34.262Z,2.88
2023-05-09T16:21:00.697Z,2.22
2023-05-09T16:23:27.175Z,1.92
2023-05-09T16:25:53.615Z,3.78
2023-05-09T16:28:20.009Z,2.90
2023-05-09T16:30:46.467Z,2.42
2023-05-09T16:33:14.202Z,3.03
2023-05-09T16:35:40.732Z,2.35
2023-05-09T16:38:07.187Z,2.15
2023-05-09T16:40:33.560Z,2.28
2023-05-09T16:43:00.002Z,3.75
2023-05-09T16:45:26.421Z,3.28
2023-05-09T16:47:55.775Z,2.75
2023-05-09T16:50:23.809Z,2.72
2023-05-09T16:52:50.396Z,2.97
2023-05-09T16:55:17.121Z,2.65
2023-05-09T16:57:43.587Z,3.00
2023-05-09T17:00:10.856Z,2.67
2023-05-09T17:02:37.487Z,3.17
2023-05-09T17:05:04.581Z,3.28
2023-05-09T17:07:32.352Z,3.33
2023-05-09T17:09:58.847Z,2.80
2023-05-09T17:12:25.336Z,3.13
2023-05-09T17:14:51.770Z,2.67
2023-05-09T17:17:18.202Z,3.50
2023-05-09T17:19:44.757Z,2.78
2023-05-09T17:22:11.963Z,3.33
2023-05-09T17:24:40.048Z,3.25
2023-05-09T17:27:08.394Z,3.22
2023-05-09T17:29:35.403Z,3.00
2023-05-09T17:32:02.292Z,3.05
2023-05-09T17:34:28.962Z,2.53
2023-05-09T17:36:55.791Z,5.05
2023-05-09T17:39:22.206Z,2.60
2023-05-09T17:41:50.059Z,2.67
2023-05-09T17:44:16.735Z,3.10
2023-05-09T17:46:43.481Z,3.17
2023-05-09T17:49:10.065Z,3.45
2023-05-09T17:51:36.740Z,2.72
2023-05-09T17:54:03.629Z,2.80
2023-05-09T17:56:30.119Z,3.03
2023-05-09T17:58:59.564Z,2.78
2023-05-09T18:01:27.819Z,3.20
2023-05-09T18:03:56.840Z,2.53
2023-05-09T18:06:23.546Z,2.53
2023-05-09T18:08:50.197Z,3.13
2023-05-09T18:11:16.813Z,3.58
2023-05-09T18:13:43.464Z,3.13
2023-05-09T18:16:12.703Z,3.47
2023-05-09T18:18:39.258Z,3.55
2023-05-09T18:21:05.799Z,3.67
2023-05-09T18:23:32.429Z,2.72
2023-05-09T18:26:01.029Z,3.60
2023-05-09T18:28:27.710Z,3.00
2023-05-09T18:30:58.853Z,3.92
2023-05-09T18:33:28.141Z,4.20
2023-05-09T18:36:00.207Z,3.40
2023-05-09T18:38:27.038Z,3.20
2023-05-09T18:40:57.878Z,3.45
2023-05-09T18:43:24.976Z,3.25
2023-05-09T18:46:02.951Z,3.40
2023-05-09T18:48:33.060Z,3.22
2023-05-09T18:50:59.819Z,4.35
2023-05-09T18:53:38.071Z,4.22
2023-05-09T18:56:05.304Z,3.90
2023-05-09T18:58:39.556Z,3.47
2023-05-09T19:56:12.818Z,3.92
2023-05-09T20:02:32.662Z,3.60
2023-05-09T20:05:12.525Z,3.97
2023-05-09T20:14:15.780Z,4.38
2023-05-09T20:17:09.003Z,3.92
2023-05-09T20:20:03.560Z,3.55
2023-05-09T20:22:51.184Z,3.83
2023-05-09T20:28:21.393Z,4.00
2023-05-09T20:34:25.138Z,4.60
2023-05-09T20:37:11.673Z,3.90
2023-05-09T20:39:42.412Z,4.28
2023-05-09T20:42:14.116Z,4.43
2023-05-09T20:44:51.609Z,4.28
2023-05-09T20:47:35.285Z,4.65
2023-05-09T20:50:04.259Z,4.25
2023-05-09T20:55:34.581Z,3.95
2023-05-09T20:58:29.899Z,3.92
2023-05-09T21:15:15.406Z,3.92
2023-05-09T21:18:37.169Z,4.13
2023-05-09T21:21:39.854Z,4.00
2023-05-09T21:25:04.466Z,4.45
2023-05-09T21:27:54.008Z,3.95
2023-05-09T21:37:04.726Z,3.85
2023-05-09T21:40:00.216Z,3.88
2023-05-09T21:59:22.277Z,3.60
2023-05-09T22:02:10.683Z,3.97
2023-05-09T22:04:47.199Z,3.60
2023-05-09T22:07:28.039Z,4.00
2023-05-09T22:10:03.084Z,3.58
2023-05-09T22:13:52.148Z,3.90
2023-05-09T22:23:41.081Z,3.80
2023-05-09T22:36:15.948Z,3.60
2023-05-09T23:03:06.473Z,4.65
2023-05-09T23:10:09.242Z,3.95
2023-05-09T23:16:13.224Z,3.75
2023-05-09T23:24:57.377Z,3.65
2023-05-09T23:27:23.809Z,4.45
2023-05-09T23:29:50.293Z,3.75
2023-05-09T23:32:16.736Z,4.20
2023-05-09T23:34:43.130Z,4.18
2023-05-09T23:37:09.530Z,4.72
2023-05-09T23:39:36.003Z,3.67
2023-05-09T23:42:04.055Z,4.38
2023-05-09T23:44:30.471Z,4.32
2023-05-09T23:46:56.993Z,4.40
2023-05-09T23:49:23.538Z,3.60
2023-05-09T23:51:49.939Z,3.92
2023-05-09T23:54:16.413Z,3.65
2023-05-09T23:56:42.842Z,4.13
2023-05-09T23:59:10.603Z,3.83
